sensor_id;sensor_type;location;lat;lon;timestamp;pressure;altitude;pressure_sealevel;temperature;humidity
46876;BME280;32866;50.160;14.768;2023-10-13T00:01:21;99348.31;;;14.59;100.00
46876;BME280;32866;50.160;14.768;2023-10-13T00:03:48;99373.25;;;14.74;100.00
46876;BME280;32866;50.160;14.768;2023-10-13T00:06:14;99372.00;;;14.75;100.00
46876;BME280;32866;50.160;14.768;2023-10-13T00:08:41;99370.47;;;14.74;100.00
46876;BME280;32866;50.160;14.768;2023-10-13T00:11:12;99366.31;;;14.79;100.00
46876;BME280;32866;50.160;14.768;2023-10-13T00:13:38;99341.75;;;14.57;100.00
46876;BME280;32866;50.160;14.768;2023-10-13T00:16:17;99326.66;;;14.43;100.00
46876;BME280;32866;50.160;14.768;2023-10-13T00:18:48;99367.25;;;14.76;100.00
46876;BME280;32866;50.160;14.768;2023-10-13T00:21:16;99365.88;;;14.71;100.00
46876;BME280;32866;50.160;14.768;2023-10-13T00:23:50;99362.22;;;14.74;100.00
46876;BME280;32866;50.160;14.768;2023-10-13T00:26:22;99323.84;;;14.52;100.00
46876;BME280;32866;50.160;14.768;2023-10-13T00:28:55;99357.41;;;14.84;100.00
46876;BME280;32866;50.160;14.768;2023-10-13T00:31:27;99339.75;;;14.67;100.00
46876;BME280;32866;50.160;14.768;2023-10-13T00:33:59;99363.38;;;14.82;100.00
46876;BME280;32866;50.160;14.768;2023-10-13T00:36:35;99362.03;;;14.78;100.00
46876;BME280;32866;50.160;14.768;2023-10-13T00:39:01;99370.44;;;14.83;100.00
46876;BME280;32866;50.160;14.768;2023-10-13T00:41:29;99332.22;;;14.58;100.00
46876;BME280;32866;50.160;14.768;2023-10-13T00:44:16;99345.72;;;14.65;100.00
46876;BME280;32866;50.160;14.768;2023-10-13T00:46:44;99338.66;;;14.64;100.00
46876;BME280;32866;50.160;14.768;2023-10-13T00:49:11;99323.06;;;14.52;100.00
46876;BME280;32866;50.160;14.768;2023-10-13T00:51:42;99313.25;;;14.51;100.00
46876;BME280;32866;50.160;14.768;2023-10-13T00:54:13;99368.34;;;14.78;100.00
46876;BME280;32866;50.160;14.768;2023-10-13T00:56:40;99323.94;;;14.58;100.00
46876;BME280;32866;50.160;14.768;2023-10-13T00:59:16;99348.84;;;14.82;100.00
46876;BME280;32866;50.160;14.768;2023-10-13T01:01:42;99369.00;;;14.97;100.00
46876;BME280;32866;50.160;14.768;2023-10-13T01:04:10;99374.97;;;14.96;100.00
46876;BME280;32866;50.160;14.768;2023-10-13T01:06:39;99370.09;;;14.91;100.00
46876;BME280;32866;50.160;14.768;2023-10-13T01:09:07;99371.81;;;14.88;100.00
46876;BME280;32866;50.160;14.768;2023-10-13T01:11:49;99378.38;;;14.91;100.00
46876;BME280;32866;50.160;14.768;2023-10-13T01:14:21;99336.84;;;14.61;100.00
46876;BME280;32866;50.160;14.768;2023-10-13T01:16:49;99348.75;;;14.67;100.00
46876;BME280;32866;50.160;14.768;2023-10-13T01:19:19;99383.53;;;14.98;100.00
46876;BME280;32866;50.160;14.768;2023-10-13T01:21:55;99383.53;;;14.98;100.00
46876;BME280;32866;50.160;14.768;2023-10-13T01:24:31;99389.00;;;15.07;100.00
46876;BME280;32866;50.160;14.768;2023-10-13T01:26:57;99387.16;;;15.13;100.00
46876;BME280;32866;50.160;14.768;2023-10-13T01:29:25;99361.94;;;14.96;100.00
46876;BME280;32866;50.160;14.768;2023-10-13T01:31:54;99374.09;;;15.14;100.00
46876;BME280;32866;50.160;14.768;2023-10-13T01:34:20;99373.88;;;15.27;100.00
46876;BME280;32866;50.160;14.768;2023-10-13T01:36:53;99385.97;;;15.29;100.00
46876;BME280;32866;50.160;14.768;2023-10-13T01:39:22;99382.91;;;15.27;100.00
46876;BME280;32866;50.160;14.768;2023-10-13T01:41:55;99384.28;;;15.32;100.00
46876;BME280;32866;50.160;14.768;2023-10-13T01:44:25;99364.72;;;15.20;100.00
46876;BME280;32866;50.160;14.768;2023-10-13T01:46:59;99388.53;;;15.33;100.00
46876;BME280;32866;50.160;14.768;2023-10-13T01:49:25;99360.03;;;15.12;100.00
46876;BME280;32866;50.160;14.768;2023-10-13T01:51:52;99396.34;;;15.34;100.00
46876;BME280;32866;50.160;14.768;2023-10-13T01:54:17;99397.75;;;15.30;100.00
46876;BME280;32866;50.160;14.768;2023-10-13T01:56:43;99395.97;;;15.27;100.00
46876;BME280;32866;50.160;14.768;2023-10-13T01:59:12;99394.13;;;15.24;100.00
46876;BME280;32866;50.160;14.768;2023-10-13T02:01:39;99401.53;;;15.17;100.00
46876;BME280;32866;50.160;14.768;2023-10-13T02:04:08;99360.78;;;14.88;100.00
46876;BME280;32866;50.160;14.768;2023-10-13T02:06:37;99369.97;;;14.85;100.00
46876;BME280;32866;50.160;14.768;2023-10-13T02:09:05;99359.88;;;14.82;100.00
46876;BME280;32866;50.160;14.768;2023-10-13T02:11:52;99397.28;;;15.07;100.00
46876;BME280;32866;50.160;14.768;2023-10-13T02:14:22;99392.78;;;14.95;100.00
46876;BME280;32866;50.160;14.768;2023-10-13T02:16:52;99402.63;;;15.11;100.00
46876;BME280;32866;50.160;14.768;2023-10-13T02:19:38;99404.03;;;15.06;100.00
46876;BME280;32866;50.160;14.768;2023-10-13T02:22:19;99362.38;;;14.71;100.00
46876;BME280;32866;50.160;14.768;2023-10-13T02:24:54;99382.88;;;14.79;100.00
46876;BME280;32866;50.160;14.768;2023-10-13T02:27:27;99364.97;;;14.74;100.00
46876;BME280;32866;50.160;14.768;2023-10-13T02:29:53;99409.56;;;15.06;100.00
46876;BME280;32866;50.160;14.768;2023-10-13T02:32:24;99397.03;;;14.96;100.00
46876;BME280;32866;50.160;14.768;2023-10-13T02:34:52;99405.94;;;15.00;100.00
46876;BME280;32866;50.160;14.768;2023-10-13T02:37:18;99412.38;;;14.97;100.00
46876;BME280;32866;50.160;14.768;2023-10-13T02:39:45;99405.59;;;14.98;100.00
46876;BME280;32866;50.160;14.768;2023-10-13T02:42:11;99410.47;;;15.03;100.00
46876;BME280;32866;50.160;14.768;2023-10-13T02:44:49;99366.84;;;14.68;100.00
46876;BME280;32866;50.160;14.768;2023-10-13T02:47:15;99347.41;;;14.62;100.00
46876;BME280;32866;50.160;14.768;2023-10-13T02:49:41;99401.97;;;14.92;100.00
46876;BME280;32866;50.160;14.768;2023-10-13T02:52:12;99360.44;;;14.62;100.00
46876;BME280;32866;50.160;14.768;2023-10-13T02:54:39;99389.78;;;14.74;100.00
46876;BME280;32866;50.160;14.768;2023-10-13T02:57:09;99383.56;;;14.55;100.00
46876;BME280;32866;50.160;14.768;2023-10-13T02:59:35;99393.16;;;14.78;100.00
46876;BME280;32866;50.160;14.768;2023-10-13T03:02:08;99352.50;;;14.45;100.00
46876;BME280;32866;50.160;14.768;2023-10-13T03:04:47;99371.78;;;14.45;100.00
46876;BME280;32866;50.160;14.768;2023-10-13T03:07:14;99382.34;;;14.56;100.00
46876;BME280;32866;50.160;14.768;2023-10-13T03:09:49;99383.75;;;14.42;100.00
46876;BME280;32866;50.160;14.768;2023-10-13T03:12:17;99385.13;;;14.47;100.00
46876;BME280;32866;50.160;14.768;2023-10-13T03:14:43;99379.50;;;14.32;100.00
46876;BME280;32866;50.160;14.768;2023-10-13T03:17:15;99382.59;;;14.16;100.00
46876;BME280;32866;50.160;14.768;2023-10-13T03:19:45;99372.22;;;14.01;100.00
46876;BME280;32866;50.160;14.768;2023-10-13T03:22:17;99363.97;;;13.92;100.00
46876;BME280;32866;50.160;14.768;2023-10-13T03:24:44;99373.91;;;13.80;100.00
46876;BME280;32866;50.160;14.768;2023-10-13T03:27:19;99374.69;;;13.71;100.00
46876;BME280;32866;50.160;14.768;2023-10-13T03:30:06;99382.34;;;13.67;100.00
46876;BME280;32866;50.160;14.768;2023-10-13T03:32:40;99346.41;;;13.34;100.00
46876;BME280;32866;50.160;14.768;2023-10-13T03:35:12;99380.81;;;13.48;100.00
46876;BME280;32866;50.160;14.768;2023-10-13T03:37:54;99343.00;;;13.21;100.00
46876;BME280;32866;50.160;14.768;2023-10-13T03:40:21;99380.50;;;13.36;100.00
46876;BME280;32866;50.160;14.768;2023-10-13T03:42:52;99362.69;;;13.10;100.00
46876;BME280;32866;50.160;14.768;2023-10-13T03:45:25;99351.69;;;13.01;100.00
46876;BME280;32866;50.160;14.768;2023-10-13T03:47:51;99384.13;;;13.24;100.00
46876;BME280;32866;50.160;14.768;2023-10-13T03:50:18;99380.44;;;13.18;100.00
46876;BME280;32866;50.160;14.768;2023-10-13T03:52:55;99380.75;;;13.11;100.00
46876;BME280;32866;50.160;14.768;2023-10-13T03:55:25;99324.09;;;12.73;100.00
46876;BME280;32866;50.160;14.768;2023-10-13T03:57:58;99377.94;;;13.02;100.00
46876;BME280;32866;50.160;14.768;2023-10-13T04:00:26;99378.25;;;12.94;100.00
46876;BME280;32866;50.160;14.768;2023-10-13T04:02:55;99337.94;;;12.60;100.00
46876;BME280;32866;50.160;14.768;2023-10-13T04:05:41;99375.16;;;12.83;100.00
46876;BME280;32866;50.160;14.768;2023-10-13T04:08:27;99322.50;;;12.53;100.00
46876;BME280;32866;50.160;14.768;2023-10-13T04:10:53;99374.41;;;12.83;100.00
46876;BME280;32866;50.160;14.768;2023-10-13T04:13:20;99350.66;;;12.67;100.00
46876;BME280;32866;50.160;14.768;2023-10-13T04:15:46;99389.81;;;12.80;100.00
46876;BME280;32866;50.160;14.768;2023-10-13T04:18:30;99379.09;;;12.73;100.00
46876;BME280;32866;50.160;14.768;2023-10-13T04:21:16;99332.81;;;12.31;100.00
46876;BME280;32866;50.160;14.768;2023-10-13T04:24:09;99364.38;;;12.57;100.00
46876;BME280;32866;50.160;14.768;2023-10-13T04:26:54;99331.56;;;12.22;100.00
46876;BME280;32866;50.160;14.768;2023-10-13T04:29:38;99327.84;;;12.16;100.00
46876;BME280;32866;50.160;14.768;2023-10-13T04:32:14;99358.22;;;12.44;100.00
46876;BME280;32866;50.160;14.768;2023-10-13T04:34:45;99323.59;;;12.15;100.00
46876;BME280;32866;50.160;14.768;2023-10-13T04:37:12;99320.84;;;12.15;100.00
46876;BME280;32866;50.160;14.768;2023-10-13T04:40:00;99356.66;;;12.43;100.00
46876;BME280;32866;50.160;14.768;2023-10-13T04:42:35;99328.75;;;12.13;100.00
46876;BME280;32866;50.160;14.768;2023-10-13T04:45:20;99362.69;;;12.60;100.00
46876;BME280;32866;50.160;14.768;2023-10-13T04:47:55;99362.56;;;12.64;100.00
46876;BME280;32866;50.160;14.768;2023-10-13T04:50:40;99321.81;;;12.31;100.00
46876;BME280;32866;50.160;14.768;2023-10-13T04:53:15;99296.00;;;12.28;100.00
46876;BME280;32866;50.160;14.768;2023-10-13T04:56:01;99332.59;;;12.56;100.00
46876;BME280;32866;50.160;14.768;2023-10-13T04:58:28;99310.69;;;12.34;100.00
46876;BME280;32866;50.160;14.768;2023-10-13T05:01:03;99348.50;;;12.61;100.00
46876;BME280;32866;50.160;14.768;2023-10-13T05:03:48;99321.31;;;12.54;100.00
46876;BME280;32866;50.160;14.768;2023-10-13T05:06:32;99349.50;;;12.86;100.00
46876;BME280;32866;50.160;14.768;2023-10-13T05:09:07;99361.25;;;12.87;100.00
46876;BME280;32866;50.160;14.768;2023-10-13T05:11:52;99357.16;;;12.91;100.00
46876;BME280;32866;50.160;14.768;2023-10-13T05:14:38;99356.28;;;13.13;100.00
46876;BME280;32866;50.160;14.768;2023-10-13T05:17:22;99354.78;;;13.21;100.00
46876;BME280;32866;50.160;14.768;2023-10-13T05:20:08;99358.44;;;13.18;100.00
46876;BME280;32866;50.160;14.768;2023-10-13T05:22:52;99329.03;;;12.87;100.00
46876;BME280;32866;50.160;14.768;2023-10-13T05:25:37;99373.94;;;12.93;100.00
46876;BME280;32866;50.160;14.768;2023-10-13T05:28:29;99356.34;;;12.72;100.00
46876;BME280;32866;50.160;14.768;2023-10-13T05:31:14;99375.50;;;12.94;100.00
46876;BME280;32866;50.160;14.768;2023-10-13T05:33:58;99374.44;;;13.10;100.00
46876;BME280;32866;50.160;14.768;2023-10-13T05:36:42;99383.97;;;13.28;100.00
46876;BME280;32866;50.160;14.768;2023-10-13T05:39:26;99327.22;;;13.12;100.00
46876;BME280;32866;50.160;14.768;2023-10-13T05:42:11;99332.16;;;13.35;100.00
46876;BME280;32866;50.160;14.768;2023-10-13T05:44:55;99368.56;;;13.95;100.00
46876;BME280;32866;50.160;14.768;2023-10-13T05:47:39;99380.00;;;14.21;100.00
46876;BME280;32866;50.160;14.768;2023-10-13T05:50:12;99375.53;;;14.33;100.00
46876;BME280;32866;50.160;14.768;2023-10-13T05:52:47;99383.75;;;14.42;100.00
46876;BME280;32866;50.160;14.768;2023-10-13T05:55:26;99377.94;;;14.50;100.00
46876;BME280;32866;50.160;14.768;2023-10-13T05:58:11;99384.59;;;14.58;100.00
46876;BME280;32866;50.160;14.768;2023-10-13T06:00:56;99368.75;;;14.43;100.00
46876;BME280;32866;50.160;14.768;2023-10-13T06:03:40;99387.03;;;14.74;100.00
46876;BME280;32866;50.160;14.768;2023-10-13T06:06:25;99398.50;;;14.82;100.00
46876;BME280;32866;50.160;14.768;2023-10-13T06:09:09;99397.41;;;14.89;100.00
46876;BME280;32866;50.160;14.768;2023-10-13T06:11:54;99399.50;;;14.94;100.00
46876;BME280;32866;50.160;14.768;2023-10-13T06:14:39;99379.81;;;14.77;100.00
46876;BME280;32866;50.160;14.768;2023-10-13T06:17:23;99396.03;;;15.08;100.00
46876;BME280;32866;50.160;14.768;2023-10-13T06:20:08;99400.78;;;15.17;100.00
46876;BME280;32866;50.160;14.768;2023-10-13T06:22:53;99350.22;;;14.87;100.00
46876;BME280;32866;50.160;14.768;2023-10-13T06:25:38;99389.94;;;15.28;100.00
46876;BME280;32866;50.160;14.768;2023-10-13T06:28:22;99376.97;;;15.19;100.00
46876;BME280;32866;50.160;14.768;2023-10-13T06:31:09;99386.50;;;15.18;100.00
46876;BME280;32866;50.160;14.768;2023-10-13T06:33:47;99401.66;;;15.47;100.00
46876;BME280;32866;50.160;14.768;2023-10-13T06:36:13;99384.50;;;15.19;100.00
46876;BME280;32866;50.160;14.768;2023-10-13T06:38:39;99418.31;;;15.53;100.00
46876;BME280;32866;50.160;14.768;2023-10-13T06:41:06;99408.91;;;15.59;100.00
46876;BME280;32866;50.160;14.768;2023-10-13T06:43:33;99420.25;;;15.62;100.00
46876;BME280;32866;50.160;14.768;2023-10-13T06:46:12;99372.44;;;15.31;100.00
46876;BME280;32866;50.160;14.768;2023-10-13T06:48:49;99391.34;;;15.48;100.00
46876;BME280;32866;50.160;14.768;2023-10-13T06:51:19;99404.56;;;15.68;100.00
46876;BME280;32866;50.160;14.768;2023-10-13T06:53:52;99397.88;;;15.84;100.00
46876;BME280;32866;50.160;14.768;2023-10-13T06:56:22;99422.38;;;16.06;100.00
46876;BME280;32866;50.160;14.768;2023-10-13T06:58:52;99383.28;;;15.83;100.00
46876;BME280;32866;50.160;14.768;2023-10-13T07:01:26;99415.25;;;16.14;100.00
46876;BME280;32866;50.160;14.768;2023-10-13T07:03:52;99381.84;;;15.88;100.00
46876;BME280;32866;50.160;14.768;2023-10-13T07:06:20;99413.78;;;16.19;100.00
46876;BME280;32866;50.160;14.768;2023-10-13T07:08:47;99394.63;;;16.15;100.00
46876;BME280;32866;50.160;14.768;2023-10-13T07:11:18;99417.50;;;16.30;100.00
46876;BME280;32866;50.160;14.768;2023-10-13T07:14:02;99390.06;;;16.12;100.00
46876;BME280;32866;50.160;14.768;2023-10-13T07:16:44;99426.47;;;16.55;100.00
46876;BME280;32866;50.160;14.768;2023-10-13T07:19:24;99420.84;;;16.64;100.00
46876;BME280;32866;50.160;14.768;2023-10-13T07:21:57;99429.44;;;16.66;100.00
46876;BME280;32866;50.160;14.768;2023-10-13T07:24:42;99390.72;;;16.51;100.00
46876;BME280;32866;50.160;14.768;2023-10-13T07:27:08;99405.50;;;16.48;100.00
46876;BME280;32866;50.160;14.768;2023-10-13T07:29:35;99376.03;;;16.30;100.00
46876;BME280;32866;50.160;14.768;2023-10-13T07:32:02;99417.97;;;16.74;100.00
46876;BME280;32866;50.160;14.768;2023-10-13T07:34:38;99377.75;;;16.58;100.00
46876;BME280;32866;50.160;14.768;2023-10-13T07:37:05;99409.88;;;16.85;100.00
46876;BME280;32866;50.160;14.768;2023-10-13T07:39:38;99358.66;;;16.60;100.00
46876;BME280;32866;50.160;14.768;2023-10-13T07:42:06;99410.47;;;17.10;100.00
46876;BME280;32866;50.160;14.768;2023-10-13T07:44:35;99403.34;;;17.23;100.00
46876;BME280;32866;50.160;14.768;2023-10-13T07:47:06;99368.00;;;17.13;100.00
46876;BME280;32866;50.160;14.768;2023-10-13T07:49:37;99400.66;;;17.50;100.00
46876;BME280;32866;50.160;14.768;2023-10-13T07:52:06;99380.56;;;17.34;100.00
46876;BME280;32866;50.160;14.768;2023-10-13T07:54:48;99392.91;;;17.54;100.00
46876;BME280;32866;50.160;14.768;2023-10-13T07:57:33;99403.16;;;17.68;100.00
46876;BME280;32866;50.160;14.768;2023-10-13T07:59:59;99407.28;;;17.78;100.00
46876;BME280;32866;50.160;14.768;2023-10-13T08:02:59;99405.91;;;17.89;100.00
46876;BME280;32866;50.160;14.768;2023-10-13T08:05:51;99359.72;;;17.59;100.00
46876;BME280;32866;50.160;14.768;2023-10-13T08:08:24;99394.81;;;17.89;100.00
46876;BME280;32866;50.160;14.768;2023-10-13T08:11:15;99403.97;;;17.95;100.00
46876;BME280;32866;50.160;14.768;2023-10-13T08:13:54;99365.34;;;17.65;100.00
46876;BME280;32866;50.160;14.768;2023-10-13T08:16:20;99389.63;;;17.96;100.00
46876;BME280;32866;50.160;14.768;2023-10-13T08:18:49;99362.94;;;17.78;100.00
46876;BME280;32866;50.160;14.768;2023-10-13T08:21:16;99396.13;;;18.20;100.00
46876;BME280;32866;50.160;14.768;2023-10-13T08:23:43;99379.47;;;18.20;100.00
46876;BME280;32866;50.160;14.768;2023-10-13T08:26:22;99389.16;;;18.30;100.00
46876;BME280;32866;50.160;14.768;2023-10-13T08:29:07;99385.09;;;18.25;100.00
46876;BME280;32866;50.160;14.768;2023-10-13T08:31:48;99343.97;;;17.92;100.00
46876;BME280;32866;50.160;14.768;2023-10-13T08:34:40;99391.44;;;18.31;100.00
46876;BME280;32866;50.160;14.768;2023-10-13T08:37:09;99393.44;;;18.31;100.00
46876;BME280;32866;50.160;14.768;2023-10-13T08:39:51;99393.72;;;18.33;100.00
46876;BME280;32866;50.160;14.768;2023-10-13T08:42:32;99392.69;;;18.30;100.00
46876;BME280;32866;50.160;14.768;2023-10-13T08:45:07;99390.69;;;18.31;100.00
46876;BME280;32866;50.160;14.768;2023-10-13T08:47:50;99392.72;;;18.36;100.00
46876;BME280;32866;50.160;14.768;2023-10-13T08:50:52;99388.78;;;18.48;100.00
46876;BME280;32866;50.160;14.768;2023-10-13T08:56:07;99379.31;;;18.61;100.00
46876;BME280;32866;50.160;14.768;2023-10-13T08:58:44;99338.41;;;18.56;100.00
46876;BME280;32866;50.160;14.768;2023-10-13T09:01:21;99362.16;;;18.94;100.00
46876;BME280;32866;50.160;14.768;2023-10-13T09:04:07;99379.69;;;19.17;100.00
46876;BME280;32866;50.160;14.768;2023-10-13T09:07:04;99381.31;;;19.46;100.00
46876;BME280;32866;50.160;14.768;2023-10-13T09:12:21;99377.09;;;19.74;100.00
46876;BME280;32866;50.160;14.768;2023-10-13T09:15:09;99375.41;;;19.93;100.00
46876;BME280;32866;50.160;14.768;2023-10-13T09:17:56;99377.44;;;20.10;100.00
46876;BME280;32866;50.160;14.768;2023-10-13T09:20:41;99372.13;;;20.17;100.00
46876;BME280;32866;50.160;14.768;2023-10-13T09:23:12;99384.53;;;20.33;100.00
46876;BME280;32866;50.160;14.768;2023-10-13T09:25:50;99376.19;;;20.22;100.00
46876;BME280;32866;50.160;14.768;2023-10-13T09:28:27;99376.19;;;19.99;100.00
46876;BME280;32866;50.160;14.768;2023-10-13T09:30:55;99367.56;;;19.86;100.00
46876;BME280;32866;50.160;14.768;2023-10-13T09:33:25;99368.06;;;19.90;100.00
46876;BME280;32866;50.160;14.768;2023-10-13T09:36:16;99363.44;;;19.70;100.00
46876;BME280;32866;50.160;14.768;2023-10-13T09:38:43;99372.88;;;19.95;100.00
46876;BME280;32866;50.160;14.768;2023-10-13T09:41:29;99372.91;;;20.18;100.00
46876;BME280;32866;50.160;14.768;2023-10-13T09:43:58;99369.63;;;20.36;100.00
46876;BME280;32866;50.160;14.768;2023-10-13T09:46:26;99372.66;;;20.50;100.00
46876;BME280;32866;50.160;14.768;2023-10-13T09:48:58;99345.06;;;20.52;100.00
46876;BME280;32866;50.160;14.768;2023-10-13T09:51:32;99343.75;;;20.92;100.00
46876;BME280;32866;50.160;14.768;2023-10-13T09:54:09;99355.53;;;21.27;100.00
46876;BME280;32866;50.160;14.768;2023-10-13T09:56:48;99343.84;;;21.34;100.00
46876;BME280;32866;50.160;14.768;2023-10-13T09:59:46;99312.38;;;21.45;100.00
46876;BME280;32866;50.160;14.768;2023-10-13T10:02:08;99353.28;;;22.14;100.00
46876;BME280;32866;50.160;14.768;2023-10-13T10:04:38;99343.78;;;22.29;100.00
46876;BME280;32866;50.160;14.768;2023-10-13T10:07:24;99344.63;;;22.48;100.00
46876;BME280;32866;50.160;14.768;2023-10-13T10:09:56;99336.75;;;22.52;100.00
46876;BME280;32866;50.160;14.768;2023-10-13T10:12:50;99329.75;;;22.04;100.00
46876;BME280;32866;50.160;14.768;2023-10-13T10:18:22;99329.75;;;21.68;100.00
46876;BME280;32866;50.160;14.768;2023-10-13T10:20:48;99314.13;;;21.54;100.00
46876;BME280;32866;50.160;14.768;2023-10-13T10:23:28;99318.72;;;21.45;100.00
46876;BME280;32866;50.160;14.768;2023-10-13T10:26:16;99316.66;;;21.52;100.00
46876;BME280;32866;50.160;14.768;2023-10-13T10:28:48;99304.41;;;21.19;100.00
46876;BME280;32866;50.160;14.768;2023-10-13T10:31:15;99289.53;;;20.99;100.00
46876;BME280;32866;50.160;14.768;2023-10-13T10:33:45;99317.81;;;21.20;100.00
46876;BME280;32866;50.160;14.768;2023-10-13T10:36:28;99318.84;;;21.17;100.00
46876;BME280;32866;50.160;14.768;2023-10-13T10:38:56;99305.91;;;21.25;100.00
46876;BME280;32866;50.160;14.768;2023-10-13T10:41:27;99315.00;;;21.26;100.00
46876;BME280;32866;50.160;14.768;2023-10-13T10:44:12;99300.56;;;21.27;100.00
46876;BME280;32866;50.160;14.768;2023-10-13T10:46:56;99294.94;;;21.39;100.00
46876;BME280;32866;50.160;14.768;2023-10-13T10:49:26;99292.06;;;21.56;100.00
46876;BME280;32866;50.160;14.768;2023-10-13T10:51:58;99270.34;;;21.48;100.00
46876;BME280;32866;50.160;14.768;2023-10-13T10:54:27;99289.00;;;21.59;100.00
46876;BME280;32866;50.160;14.768;2023-10-13T10:57:00;99297.59;;;21.67;100.00
46876;BME280;32866;50.160;14.768;2023-10-13T10:59:53;99283.38;;;21.65;100.00
46876;BME280;32866;50.160;14.768;2023-10-13T11:02:35;99292.41;;;21.82;100.00
46876;BME280;32866;50.160;14.768;2023-10-13T11:05:01;99286.03;;;21.88;100.00
46876;BME280;32866;50.160;14.768;2023-10-13T11:07:27;99293.72;;;22.06;100.00
46876;BME280;32866;50.160;14.768;2023-10-13T11:09:55;99265.75;;;22.17;100.00
46876;BME280;32866;50.160;14.768;2023-10-13T11:12:37;99282.75;;;22.69;100.00
46876;BME280;32866;50.160;14.768;2023-10-13T11:15:06;99266.78;;;22.88;100.00
46876;BME280;32866;50.160;14.768;2023-10-13T11:18:02;99270.84;;;23.12;100.00
46876;BME280;32866;50.160;14.768;2023-10-13T11:20:31;99261.72;;;23.63;100.00
46876;BME280;32866;50.160;14.768;2023-10-13T11:23:15;99267.94;;;24.20;100.00
46876;BME280;32866;50.160;14.768;2023-10-13T11:25:41;99260.09;;;24.45;100.00
46876;BME280;32866;50.160;14.768;2023-10-13T11:28:15;99250.66;;;23.89;100.00
46876;BME280;32866;50.160;14.768;2023-10-13T11:31:08;99251.19;;;22.74;100.00
46876;BME280;32866;50.160;14.768;2023-10-13T11:33:43;99246.72;;;22.46;100.00
46876;BME280;32866;50.160;14.768;2023-10-13T11:36:14;99250.31;;;22.41;100.00
46876;BME280;32866;50.160;14.768;2023-10-13T11:38:45;99198.66;;;22.29;100.00
46876;BME280;32866;50.160;14.768;2023-10-13T11:41:14;99210.53;;;22.35;100.00
46876;BME280;32866;50.160;14.768;2023-10-13T11:43:49;99193.09;;;22.29;100.00
46876;BME280;32866;50.160;14.768;2023-10-13T11:46:16;99220.47;;;22.55;100.00
46876;BME280;32866;50.160;14.768;2023-10-13T11:48:45;99213.22;;;22.46;100.00
46876;BME280;32866;50.160;14.768;2023-10-13T11:51:14;99196.56;;;22.59;100.00
46876;BME280;32866;50.160;14.768;2023-10-13T11:53:44;99215.59;;;23.69;100.00
46876;BME280;32866;50.160;14.768;2023-10-13T11:56:19;99201.09;;;24.70;100.00
46876;BME280;32866;50.160;14.768;2023-10-13T11:58:49;99208.47;;;24.94;100.00
46876;BME280;32866;50.160;14.768;2023-10-13T12:01:15;99173.09;;;24.43;100.00
46876;BME280;32866;50.160;14.768;2023-10-13T12:03:46;99198.94;;;24.23;100.00
46876;BME280;32866;50.160;14.768;2023-10-13T12:06:33;99194.31;;;24.25;100.00
46876;BME280;32866;50.160;14.768;2023-10-13T12:09:03;99186.25;;;24.35;100.00
46876;BME280;32866;50.160;14.768;2023-10-13T12:11:38;99186.88;;;24.28;100.00
46876;BME280;32866;50.160;14.768;2023-10-13T12:14:14;99175.03;;;24.22;100.00
46876;BME280;32866;50.160;14.768;2023-10-13T12:16:43;99174.19;;;24.14;100.00
46876;BME280;32866;50.160;14.768;2023-10-13T12:19:22;99176.13;;;24.32;100.00
46876;BME280;32866;50.160;14.768;2023-10-13T12:21:53;99148.88;;;24.19;100.00
46876;BME280;32866;50.160;14.768;2023-10-13T12:24:26;99169.22;;;24.60;100.00
46876;BME280;32866;50.160;14.768;2023-10-13T12:27:02;99166.69;;;24.83;100.00
46876;BME280;32866;50.160;14.768;2023-10-13T12:29:28;99164.94;;;24.93;100.00
46876;BME280;32866;50.160;14.768;2023-10-13T12:31:55;99160.16;;;24.54;100.00
46876;BME280;32866;50.160;14.768;2023-10-13T12:34:36;99146.41;;;24.02;100.00
46876;BME280;32866;50.160;14.768;2023-10-13T12:37:21;99126.25;;;23.31;100.00
46876;BME280;32866;50.160;14.768;2023-10-13T12:40:02;99145.97;;;23.52;100.00
46876;BME280;32866;50.160;14.768;2023-10-13T12:42:47;99148.28;;;23.67;100.00
46876;BME280;32866;50.160;14.768;2023-10-13T12:45:32;99134.41;;;23.75;100.00
46876;BME280;32866;50.160;14.768;2023-10-13T12:48:17;99126.41;;;23.98;100.00
46876;BME280;32866;50.160;14.768;2023-10-13T12:51:02;99121.56;;;24.12;100.00
46876;BME280;32866;50.160;14.768;2023-10-13T12:53:55;99096.25;;;24.04;100.00
46876;BME280;32866;50.160;14.768;2023-10-13T12:56:30;99134.75;;;24.99;100.00
46876;BME280;32866;50.160;14.768;2023-10-13T12:58:56;99111.50;;;24.91;100.00
46876;BME280;32866;50.160;14.768;2023-10-13T13:01:24;99119.13;;;24.56;100.00
46876;BME280;32866;50.160;14.768;2023-10-13T13:03:53;99128.00;;;24.34;100.00
46876;BME280;32866;50.160;14.768;2023-10-13T13:06:25;99123.69;;;24.06;100.00
46876;BME280;32866;50.160;14.768;2023-10-13T13:08:52;99089.53;;;23.67;100.00
46876;BME280;32866;50.160;14.768;2023-10-13T13:11:18;99102.50;;;23.84;100.00
46876;BME280;32866;50.160;14.768;2023-10-13T13:13:44;99072.03;;;23.67;100.00
46876;BME280;32866;50.160;14.768;2023-10-13T13:16:18;99106.91;;;24.19;100.00
46876;BME280;32866;50.160;14.768;2023-10-13T13:18:45;99101.13;;;24.52;100.00
46876;BME280;32866;50.160;14.768;2023-10-13T13:21:11;99105.25;;;24.64;100.00
46876;BME280;32866;50.160;14.768;2023-10-13T13:23:47;99095.28;;;24.76;100.00
46876;BME280;32866;50.160;14.768;2023-10-13T13:26:13;99051.31;;;24.50;100.00
46876;BME280;32866;50.160;14.768;2023-10-13T13:28:42;99087.63;;;25.32;100.00